Time;durP1;ratioP1;P1;durP2;ratioP2;P2;SDS_P1;SDS_P2;PMS_P1;PMS_P2;Temp;Humidity;BMP_temperature;BMP_pressure;BME280_temperature;BME280_humidity;BME280_pressure;Samples;Min_cycle;Max_cycle;Signal;HPM_P1;HPM_P2
2021/08/05 00:02:02;;;;;;;11.63;9.15;;;15.90;99.90;;;;;;4977099;28;20492;-74
2021/08/05 00:04:28;;;;;;;13.60;9.30;;;15.90;99.90;;;;;;4976327;28;20057;-73
2021/08/05 00:06:54;;;;;;;16.85;9.38;;;15.90;99.90;;;;;;4977026;28;20058;-73
2021/08/05 00:09:20;;;;;;;13.60;8.25;;;15.90;99.90;;;;;;4977052;28;20030;-73
2021/08/05 00:11:46;;;;;;;12.50;7.75;;;15.80;99.90;;;;;;4977080;28;20085;-73
2021/08/05 00:14:12;;;;;;;14.98;8.57;;;15.80;99.90;;;;;;4976846;28;20030;-74
2021/08/05 00:16:38;;;;;;;14.82;11.05;;;15.80;99.90;;;;;;4976565;28;20055;-73
2021/08/05 00:19:04;;;;;;;14.23;10.30;;;15.80;99.90;;;;;;4976528;28;20051;-72
2021/08/05 00:21:30;;;;;;;11.48;8.90;;;15.80;99.90;;;;;;4976922;28;20445;-72
2021/08/05 00:23:56;;;;;;;10.48;7.78;;;15.60;99.90;;;;;;4976596;28;20031;-73
2021/08/05 00:26:22;;;;;;;13.55;9.13;;;15.60;99.90;;;;;;4975455;28;20026;-73
2021/08/05 00:28:47;;;;;;;9.20;7.85;;;15.70;99.90;;;;;;4976712;28;20034;-72
2021/08/05 00:31:13;;;;;;;15.32;10.70;;;15.70;99.90;;;;;;4976500;28;20027;-74
2021/08/05 00:33:39;;;;;;;12.88;9.60;;;15.70;99.90;;;;;;4976472;28;20030;-73
2021/08/05 00:36:05;;;;;;;16.90;10.07;;;15.70;99.90;;;;;;4973516;28;20050;-74
2021/08/05 00:38:31;;;;;;;19.70;10.05;;;15.80;99.90;;;;;;4976138;28;20023;-73
2021/08/05 00:40:57;;;;;;;15.40;9.68;;;15.80;99.90;;;;;;4976322;28;20078;-73
2021/08/05 00:43:23;;;;;;;18.55;9.88;;;15.80;99.90;;;;;;4976093;28;20042;-74
2021/08/05 00:45:49;;;;;;;14.75;9.95;;;15.80;99.90;;;;;;4975292;28;20496;-73
2021/08/05 00:48:14;;;;;;;15.00;9.00;;;15.80;99.90;;;;;;4978924;28;20038;-74
2021/08/05 00:50:40;;;;;;;10.75;7.88;;;15.80;99.90;;;;;;4995103;28;20124;-73
2021/08/05 00:53:06;;;;;;;13.88;9.30;;;15.60;99.90;;;;;;4995092;28;20368;-73
2021/08/05 00:55:33;;;;;;;8.50;7.60;;;15.70;99.90;;;;;;4994572;28;20030;-73
2021/08/05 00:57:59;;;;;;;10.52;7.45;;;15.60;99.90;;;;;;4995139;28;20097;-73
2021/08/05 01:00:25;;;;;;;13.88;8.80;;;15.70;99.90;;;;;;4977621;28;20108;-73
2021/08/05 01:03:10;;;;;;;12.23;8.25;;;15.70;99.90;;;;;;4995137;28;20018;-74
2021/08/05 01:05:46;;;;;;;14.85;10.40;;;15.70;99.90;;;;;;4994282;28;20108;-73
2021/08/05 01:08:18;;;;;;;10.38;9.15;;;15.90;99.90;;;;;;4993889;28;20030;-73
2021/08/05 01:10:55;;;;;;;9.70;8.25;;;15.80;99.90;;;;;;4994425;28;20431;-73
2021/08/05 01:13:46;;;;;;;9.88;7.47;;;15.70;99.90;;;;;;4994861;28;20113;-73
2021/08/05 01:16:16;;;;;;;11.95;7.85;;;15.60;99.90;;;;;;4994158;28;20113;-74
2021/08/05 01:18:44;;;;;;;15.25;7.85;;;15.60;99.90;;;;;;4994434;28;20440;-73
2021/08/05 01:21:18;;;;;;;14.73;8.23;;;15.60;99.90;;;;;;4994508;28;20484;-73
2021/08/05 01:23:54;;;;;;;12.27;7.93;;;15.70;99.90;;;;;;4994722;28;20022;-73
2021/08/05 01:26:38;;;;;;;13.38;8.80;;;15.70;99.90;;;;;;5090028;23;20054;-72
2021/08/05 01:29:05;;;;;;;13.43;8.77;;;15.60;99.90;;;;;;4993523;28;20046;-73
2021/08/05 01:31:31;;;;;;;17.63;8.73;;;15.60;99.90;;;;;;4985869;28;20083;-73
2021/08/05 01:33:57;;;;;;;13.85;8.77;;;15.60;99.90;;;;;;4986186;28;20051;-73
2021/08/05 01:36:26;;;;;;;12.85;9.00;;;15.60;99.90;;;;;;4984974;28;20029;-73
2021/08/05 01:38:56;;;;;;;11.05;9.52;;;15.70;99.90;;;;;;4984505;28;20033;-72
2021/08/05 01:41:24;;;;;;;16.85;9.85;;;15.70;99.90;;;;;;4982567;28;20058;-73
2021/08/05 01:43:51;;;;;;;19.92;9.10;;;15.60;99.90;;;;;;4976298;28;20042;-72
2021/08/05 01:46:21;;;;;;;13.10;8.10;;;15.50;99.90;;;;;;4975783;28;20070;-73
2021/08/05 01:48:49;;;;;;;15.85;9.80;;;15.40;99.90;;;;;;4976105;28;20222;-72
2021/08/05 01:51:19;;;;;;;11.45;8.38;;;15.50;99.90;;;;;;4984366;28;20023;-71
2021/08/05 01:53:44;;;;;;;10.38;7.88;;;15.50;99.90;;;;;;4983624;28;20049;-72
2021/08/05 01:56:11;;;;;;;15.40;8.68;;;15.40;99.90;;;;;;4984095;28;20027;-72
2021/08/05 01:58:37;;;;;;;17.73;8.93;;;15.50;99.90;;;;;;4981872;28;20023;-73
2021/08/05 02:01:03;;;;;;;15.75;9.23;;;15.50;99.90;;;;;;4983763;28;20053;-71
2021/08/05 02:03:28;;;;;;;12.07;8.25;;;15.50;99.90;;;;;;4983238;28;20027;-73
2021/08/05 02:06:06;;;;;;;14.77;8.57;;;15.40;99.90;;;;;;4983830;28;20027;-74
2021/08/05 02:08:42;;;;;;;16.30;8.93;;;15.40;99.90;;;;;;4982298;28;20023;-74
2021/08/05 02:11:08;;;;;;;15.05;8.55;;;15.50;99.90;;;;;;4981008;28;20030;-74
2021/08/05 02:13:40;;;;;;;9.05;7.75;;;15.50;99.90;;;;;;4980149;28;20042;-74
2021/08/05 02:16:12;;;;;;;8.93;7.63;;;15.40;99.90;;;;;;4977639;28;20038;-74
2021/08/05 02:18:43;;;;;;;13.35;8.50;;;15.40;99.90;;;;;;4976126;28;20054;-74
2021/08/05 02:21:09;;;;;;;11.23;7.68;;;15.40;99.90;;;;;;4978860;28;20141;-73
2021/08/05 02:23:36;;;;;;;15.32;8.57;;;15.50;99.90;;;;;;4983181;28;20034;-74
2021/08/05 02:26:02;;;;;;;14.98;9.07;;;15.50;99.90;;;;;;4979199;28;20461;-74
2021/08/05 02:28:30;;;;;;;12.73;9.55;;;15.50;99.90;;;;;;5015864;28;20042;-74
2021/08/05 02:30:57;;;;;;;14.57;9.07;;;15.60;99.90;;;;;;5016558;28;20076;-74
2021/08/05 02:33:26;;;;;;;10.68;9.27;;;15.50;99.90;;;;;;5017279;28;20025;-76
2021/08/05 02:35:52;;;;;;;13.75;8.48;;;15.50;99.90;;;;;;5016794;28;20022;-74
2021/08/05 02:38:18;;;;;;;9.82;7.38;;;15.50;99.90;;;;;;4997544;28;20514;-75
2021/08/05 02:40:47;;;;;;;8.52;6.30;;;15.30;99.90;;;;;;5013456;28;20034;-74
2021/08/05 02:43:14;;;;;;;12.55;6.88;;;15.30;99.90;;;;;;5013091;28;20072;-73
2021/08/05 02:45:41;;;;;;;7.00;5.55;;;15.30;99.90;;;;;;4995074;28;20514;-73
2021/08/05 02:48:08;;;;;;;9.23;6.05;;;15.20;99.90;;;;;;5013252;28;20034;-74
2021/08/05 02:50:35;;;;;;;11.77;7.03;;;15.30;99.90;;;;;;5013181;28;20026;-73
2021/08/05 02:53:02;;;;;;;7.72;6.65;;;15.40;99.90;;;;;;5013050;28;20034;-74
2021/08/05 02:55:28;;;;;;;11.23;7.88;;;15.50;99.90;;;;;;5012363;28;20033;-74
2021/08/05 02:57:57;;;;;;;10.02;6.95;;;15.60;99.90;;;;;;5014820;28;20026;-73
2021/08/05 03:00:23;;;;;;;11.90;7.70;;;15.50;99.90;;;;;;5016121;28;20031;-73
2021/08/05 03:02:49;;;;;;;9.15;6.10;;;15.50;99.90;;;;;;5019687;28;20026;-74
2021/08/05 03:05:16;;;;;;;8.02;7.22;;;15.50;99.90;;;;;;5022560;28;20034;-73
2021/08/05 03:07:42;;;;;;;12.48;6.97;;;15.60;99.90;;;;;;5014552;28;20526;-73
2021/08/05 03:10:09;;;;;;;11.80;7.47;;;15.60;99.90;;;;;;5020550;28;20026;-72
2021/08/05 03:12:35;;;;;;;8.90;6.15;;;15.50;99.90;;;;;;5014896;28;20048;-73
2021/08/05 03:15:01;;;;;;;9.45;8.07;;;15.50;99.90;;;;;;5012004;28;20061;-73
2021/08/05 03:17:26;;;;;;;15.82;8.07;;;15.60;99.90;;;;;;5012499;28;20022;-73
2021/08/05 03:19:52;;;;;;;11.73;8.52;;;15.60;99.90;;;;;;5012136;28;20030;-73
2021/08/05 03:22:18;;;;;;;10.40;8.43;;;15.60;99.90;;;;;;5012742;28;20493;-72
2021/08/05 03:24:43;;;;;;;15.60;8.93;;;15.60;99.90;;;;;;5012112;28;20045;-73
2021/08/05 03:27:10;;;;;;;14.30;9.35;;;15.60;99.90;;;;;;5012468;28;20042;-73
2021/08/05 03:29:36;;;;;;;18.65;9.68;;;15.70;99.90;;;;;;5012468;28;20487;-73
2021/08/05 03:32:02;;;;;;;17.55;10.57;;;15.70;99.90;;;;;;5011896;28;20468;-73
2021/08/05 03:34:28;;;;;;;16.05;9.52;;;15.60;99.90;;;;;;5011543;28;20038;-72
2021/08/05 03:36:54;;;;;;;14.98;10.10;;;15.70;99.90;;;;;;5011884;28;20032;-73
2021/08/05 03:39:19;;;;;;;13.20;8.68;;;15.60;99.90;;;;;;4994534;28;20030;-72
2021/08/05 03:41:46;;;;;;;10.27;7.00;;;15.50;99.90;;;;;;5012358;28;20032;-72
2021/08/05 03:44:11;;;;;;;18.35;8.90;;;15.40;99.90;;;;;;5012453;28;20026;-73
2021/08/05 03:46:37;;;;;;;13.15;9.38;;;15.60;99.90;;;;;;5011520;28;20498;-73
2021/08/05 03:49:03;;;;;;;14.00;8.57;;;15.50;99.90;;;;;;5010201;28;20026;-71
2021/08/05 03:51:29;;;;;;;11.27;7.75;;;15.60;99.90;;;;;;4987307;28;20031;-72
2021/08/05 03:53:54;;;;;;;15.52;8.85;;;15.50;99.90;;;;;;4992943;28;20061;-72
2021/08/05 03:56:20;;;;;;;11.90;8.48;;;15.50;99.90;;;;;;4992306;28;20022;-73
2021/08/05 03:58:45;;;;;;;12.50;8.25;;;15.50;99.90;;;;;;5011374;28;20671;-72
2021/08/05 04:01:11;;;;;;;13.48;9.30;;;15.60;99.90;;;;;;5012454;28;20037;-72
2021/08/05 04:03:37;;;;;;;17.80;9.30;;;15.60;99.90;;;;;;5016572;28;20030;-72
2021/08/05 04:06:02;;;;;;;12.35;8.45;;;15.60;99.90;;;;;;5016721;28;20026;-72
2021/08/05 04:08:28;;;;;;;15.45;8.88;;;15.60;99.90;;;;;;5002430;28;20030;-75
2021/08/05 04:10:53;;;;;;;18.08;10.43;;;15.60;99.90;;;;;;4974721;28;20034;-76
2021/08/05 04:13:19;;;;;;;14.25;10.55;;;15.70;99.90;;;;;;4974759;28;20045;-77
2021/08/05 04:15:45;;;;;;;11.70;7.70;;;15.80;99.90;;;;;;4975781;28;20145;-76
2021/08/05 04:18:11;;;;;;;10.85;7.72;;;15.60;99.90;;;;;;4976335;28;20030;-75
2021/08/05 04:20:37;;;;;;;9.57;7.05;;;15.50;99.90;;;;;;4976173;28;20027;-74
2021/08/05 04:23:03;;;;;;;9.80;7.45;;;15.50;99.90;;;;;;4972145;28;20023;-73
2021/08/05 04:25:28;;;;;;;9.35;6.38;;;15.50;99.90;;;;;;4972185;28;20081;-73
2021/08/05 04:27:54;;;;;;;13.27;6.13;;;15.50;99.90;;;;;;5002927;28;20046;-72
2021/08/05 04:30:21;;;;;;;11.95;7.78;;;15.60;99.90;;;;;;5011567;28;20057;-71
2021/08/05 04:32:47;;;;;;;17.08;8.27;;;15.70;99.90;;;;;;5010936;28;20361;-75
2021/08/05 04:35:14;;;;;;;14.35;8.30;;;15.80;99.90;;;;;;4977062;28;20077;-72
2021/08/05 04:38:06;;;;;;;9.35;7.40;;;15.80;99.90;;;;;;4972528;28;20026;-72
2021/08/05 04:40:32;;;;;;;13.20;6.75;;;15.80;99.90;;;;;;4976824;28;20126;-72
2021/08/05 04:42:58;;;;;;;9.95;6.38;;;15.80;99.90;;;;;;4982854;28;20174;-71
2021/08/05 04:45:24;;;;;;;10.88;7.05;;;15.80;99.90;;;;;;4997241;28;20037;-72
2021/08/05 04:47:55;;;;;;;15.68;6.88;;;15.70;99.90;;;;;;5013190;28;20022;-72
2021/08/05 04:50:22;;;;;;;8.80;6.70;;;15.70;99.90;;;;;;5011217;28;20033;-72
2021/08/05 04:52:47;;;;;;;10.90;7.20;;;15.90;99.90;;;;;;5007120;28;20027;-75
2021/08/05 04:55:13;;;;;;;11.07;7.38;;;15.90;99.90;;;;;;5009448;28;20612;-76
2021/08/05 04:57:57;;;;;;;12.85;6.63;;;15.90;99.90;;;;;;5025528;28;20018;-75
2021/08/05 05:00:28;;;;;;;12.13;7.30;;;15.90;99.90;;;;;;5033353;28;20084;-76
2021/08/05 05:02:54;;;;;;;16.35;8.45;;;15.90;99.90;;;;;;5032153;28;20480;-75
2021/08/05 05:05:21;;;;;;;14.25;8.18;;;15.90;99.90;;;;;;5012946;28;20645;-75
2021/08/05 05:07:47;;;;;;;8.75;7.82;;;15.90;99.90;;;;;;5024071;28;20022;-75
2021/08/05 05:10:14;;;;;;;11.02;7.25;;;15.90;99.90;;;;;;5005551;28;20034;-76
2021/08/05 05:12:40;;;;;;;9.82;6.93;;;15.80;99.90;;;;;;5003916;28;20034;-74
2021/08/05 05:15:10;;;;;;;17.48;7.85;;;15.80;99.90;;;;;;4992421;28;20030;-74
2021/08/05 05:17:37;;;;;;;11.88;6.85;;;15.90;99.90;;;;;;5012076;28;20018;-74
2021/08/05 05:20:05;;;;;;;8.75;6.05;;;15.90;99.90;;;;;;5000273;28;20027;-74
2021/08/05 05:22:31;;;;;;;10.02;5.80;;;15.90;99.90;;;;;;4989442;28;20031;-74
2021/08/05 05:24:57;;;;;;;5.13;4.63;;;15.90;99.90;;;;;;4987169;28;20058;-75
2021/08/05 05:27:22;;;;;;;5.25;4.75;;;16.00;99.90;;;;;;5009134;28;20093;-74
2021/08/05 05:29:48;;;;;;;5.53;5.03;;;16.00;99.90;;;;;;5025128;28;20026;-74
2021/08/05 05:32:14;;;;;;;6.20;5.07;;;16.10;99.90;;;;;;5025209;28;20033;-75
2021/08/05 05:34:40;;;;;;;6.05;4.97;;;16.10;99.90;;;;;;5025409;28;20384;-74
2021/08/05 05:37:06;;;;;;;8.45;5.03;;;16.20;99.90;;;;;;5027615;28;20034;-74
2021/08/05 05:39:32;;;;;;;8.18;4.95;;;16.40;99.90;;;;;;5028389;28;20499;-74
2021/08/05 05:41:57;;;;;;;7.53;4.13;;;16.50;99.90;;;;;;5029783;28;20026;-76
2021/08/05 05:44:23;;;;;;;5.20;4.75;;;16.50;99.90;;;;;;5024017;28;20046;-73
2021/08/05 05:46:49;;;;;;;10.60;4.15;;;16.50;99.90;;;;;;4991337;28;20058;-75
2021/08/05 05:49:15;;;;;;;6.35;4.53;;;16.40;99.90;;;;;;4992976;28;20027;-74
2021/08/05 05:51:40;;;;;;;8.18;4.70;;;16.40;99.90;;;;;;4992425;28;20042;-72
2021/08/05 05:54:06;;;;;;;9.95;4.97;;;16.50;99.90;;;;;;4991021;28;20042;-75
2021/08/05 05:56:33;;;;;;;7.70;4.82;;;16.60;99.90;;;;;;4986507;28;20031;-75
2021/08/05 05:58:58;;;;;;;8.07;4.70;;;16.60;99.90;;;;;;4985917;28;20392;-72
2021/08/05 06:01:24;;;;;;;5.53;4.88;;;16.50;99.90;;;;;;4989605;28;20061;-72
2021/08/05 06:03:49;;;;;;;5.85;5.22;;;16.30;99.90;;;;;;4991850;28;20497;-73
2021/08/05 06:06:15;;;;;;;7.15;4.82;;;16.10;99.90;;;;;;4991435;28;20081;-72
2021/08/05 06:08:41;;;;;;;10.07;5.35;;;16.20;99.90;;;;;;4991258;28;20034;-73
2021/08/05 06:11:06;;;;;;;11.70;4.82;;;16.20;99.90;;;;;;4990793;28;20151;-73
2021/08/05 06:13:32;;;;;;;7.82;5.07;;;16.10;99.90;;;;;;4993864;28;20061;-72
2021/08/05 06:15:58;;;;;;;5.70;5.00;;;15.90;99.90;;;;;;5003656;28;20050;-72
2021/08/05 06:18:23;;;;;;;5.22;4.32;;;16.10;99.90;;;;;;5007509;28;20023;-72
2021/08/05 06:20:49;;;;;;;5.15;4.65;;;16.20;99.90;;;;;;4989374;28;20018;-72
2021/08/05 06:23:15;;;;;;;11.20;5.55;;;16.10;99.90;;;;;;4988167;28;20034;-72
2021/08/05 06:25:40;;;;;;;7.32;4.22;;;16.20;99.90;;;;;;4988178;28;20027;-72
2021/08/05 06:28:06;;;;;;;4.82;4.20;;;16.30;99.90;;;;;;4991079;28;20046;-72
2021/08/05 06:30:32;;;;;;;6.28;3.83;;;16.60;99.90;;;;;;4992403;28;20524;-71
2021/08/05 06:32:58;;;;;;;5.47;3.65;;;16.70;99.90;;;;;;5002891;28;20034;-73
2021/08/05 06:35:31;;;;;;;8.38;4.00;;;16.70;99.90;;;;;;5007018;28;20034;-72
2021/08/05 06:37:57;;;;;;;7.63;4.13;;;16.90;99.90;;;;;;5004947;28;20061;-73
2021/08/05 06:40:23;;;;;;;7.18;3.80;;;17.10;99.90;;;;;;5004434;28;20015;-73
2021/08/05 06:42:48;;;;;;;4.60;3.90;;;17.10;99.90;;;;;;4996918;28;20030;-73
2021/08/05 06:45:14;;;;;;;4.50;3.63;;;17.30;99.90;;;;;;4999593;28;20022;-72
2021/08/05 06:47:43;;;;;;;3.83;3.38;;;17.20;99.90;;;;;;5013717;28;20453;-72
2021/08/05 06:50:10;;;;;;;4.07;3.33;;;17.00;99.90;;;;;;4989740;28;20048;-73
2021/08/05 06:52:36;;;;;;;5.00;3.55;;;17.00;99.90;;;;;;5007160;28;20030;-73
2021/08/05 06:55:01;;;;;;;4.40;3.88;;;17.00;99.90;;;;;;5005132;28;20046;-73
2021/08/05 06:57:27;;;;;;;6.93;3.65;;;17.20;99.90;;;;;;5004342;28;20029;-73
2021/08/05 06:59:53;;;;;;;5.20;4.13;;;17.10;99.90;;;;;;5005660;28;20049;-73
2021/08/05 07:02:18;;;;;;;3.47;3.08;;;17.20;99.90;;;;;;4985152;28;20018;-73
2021/08/05 07:04:44;;;;;;;5.63;2.97;;;17.30;99.90;;;;;;5002077;28;20030;-73
2021/08/05 07:07:10;;;;;;;6.15;3.40;;;17.50;99.90;;;;;;5001040;28;20031;-71
2021/08/05 07:09:35;;;;;;;4.25;3.60;;;17.60;99.90;;;;;;5002663;28;20185;-73
2021/08/05 07:12:01;;;;;;;3.42;3.13;;;17.70;99.90;;;;;;5002579;28;20030;-73
2021/08/05 07:14:27;;;;;;;7.03;2.92;;;18.10;99.90;;;;;;4983793;28;20555;-70
2021/08/05 07:16:52;;;;;;;5.43;3.45;;;18.30;99.90;;;;;;4985141;28;20022;-73
2021/08/05 07:19:18;;;;;;;3.58;2.60;;;18.70;99.90;;;;;;5002320;28;20093;-73
2021/08/05 07:21:44;;;;;;;3.75;2.50;;;18.80;99.90;;;;;;5001974;28;20182;-73
2021/08/05 07:24:12;;;;;;;8.90;3.20;;;19.00;99.90;;;;;;5001165;28;20027;-72
2021/08/05 07:26:38;;;;;;;5.93;3.25;;;19.20;99.90;;;;;;4997694;28;20022;-73
2021/08/05 07:29:03;;;;;;;3.03;2.33;;;19.00;99.90;;;;;;5015488;23;20170;-73
2021/08/05 07:31:29;;;;;;;5.50;3.10;;;19.10;99.90;;;;;;4984368;28;20369;-71
2021/08/05 07:33:55;;;;;;;4.38;3.55;;;18.60;99.90;;;;;;4991462;28;20097;-71
2021/08/05 07:36:21;;;;;;;6.68;2.97;;;18.40;99.90;;;;;;4992200;28;20030;-71
2021/08/05 07:38:47;;;;;;;4.38;3.28;;;18.70;99.90;;;;;;4960668;28;20022;-72
2021/08/05 07:41:13;;;;;;;4.90;2.92;;;19.00;99.90;;;;;;4973908;28;20045;-72
2021/08/05 07:43:39;;;;;;;3.67;2.70;;;19.00;99.90;;;;;;4972758;28;20050;-72
2021/08/05 07:46:05;;;;;;;2.45;2.25;;;19.10;99.90;;;;;;4972155;28;20031;-71
2021/08/05 07:48:31;;;;;;;6.15;2.90;;;19.00;99.90;;;;;;4972800;28;20030;-73
2021/08/05 07:50:56;;;;;;;4.53;2.28;;;19.00;99.90;;;;;;4955420;28;20039;-72
2021/08/05 07:53:22;;;;;;;3.67;2.60;;;19.30;99.90;;;;;;4972919;28;20033;-73
2021/08/05 07:55:48;;;;;;;6.47;2.60;;;19.70;99.90;;;;;;4972566;28;20030;-72
2021/08/05 07:58:13;;;;;;;4.00;2.72;;;19.80;99.90;;;;;;4972336;28;20078;-72
2021/08/05 08:00:39;;;;;;;4.25;2.90;;;20.20;99.90;;;;;;4972573;28;20035;-73
2021/08/05 08:03:05;;;;;;;3.28;2.70;;;20.40;99.90;;;;;;4972434;28;20037;-73
2021/08/05 08:05:31;;;;;;;2.70;2.50;;;20.60;99.90;;;;;;4972005;28;20122;-73
2021/08/05 08:07:59;;;;;;;3.20;2.72;;;20.60;99.90;;;;;;4972778;28;20452;-71
2021/08/05 08:10:26;;;;;;;6.22;2.88;;;20.80;99.90;;;;;;4959811;28;20031;-71
2021/08/05 08:12:53;;;;;;;2.45;2.17;;;20.20;99.90;;;;;;4952746;29;20019;-71
2021/08/05 08:15:22;;;;;;;5.55;3.15;;;20.00;99.90;;;;;;4952669;29;20390;-70
2021/08/05 08:17:48;;;;;;;2.50;2.30;;;20.50;99.90;;;;;;4952997;28;20111;-71
2021/08/05 08:20:14;;;;;;;3.95;2.83;;;21.00;99.90;;;;;;4957120;29;20094;-71
2021/08/05 08:22:39;;;;;;;2.95;2.65;;;21.10;99.90;;;;;;4957193;29;20111;-71
2021/08/05 08:25:06;;;;;;;3.05;2.75;;;21.60;99.90;;;;;;4956546;29;20085;-72
2021/08/05 08:27:31;;;;;;;6.45;2.72;;;22.00;99.90;;;;;;4959838;28;20512;-71
2021/08/05 08:29:57;;;;;;;4.25;2.83;;;22.20;99.90;;;;;;4976516;28;20027;-72
2021/08/05 08:32:23;;;;;;;2.70;2.50;;;22.00;99.90;;;;;;4976703;28;20031;-70
2021/08/05 08:34:48;;;;;;;6.57;2.38;;;21.80;99.90;;;;;;4975978;28;20499;-71
2021/08/05 08:37:14;;;;;;;2.45;2.20;;;21.70;99.90;;;;;;4976456;28;20113;-70
2021/08/05 08:39:40;;;;;;;2.03;1.90;;;21.40;99.90;;;;;;4976554;28;20109;-70
2021/08/05 08:42:07;;;;;;;7.40;2.63;;;21.00;99.90;;;;;;4976102;28;20106;-71
2021/08/05 08:44:32;;;;;;;2.65;1.83;;;21.70;99.90;;;;;;4975215;28;20607;-72
2021/08/05 08:46:59;;;;;;;2.95;2.65;;;21.80;99.90;;;;;;4976028;28;20114;-72
2021/08/05 08:49:27;;;;;;;2.53;2.17;;;22.60;99.90;;;;;;4976021;28;20035;-71
2021/08/05 08:51:55;;;;;;;2.10;1.90;;;22.10;99.90;;;;;;4970206;28;20050;-75
2021/08/05 08:54:22;;;;;;;2.60;1.60;;;21.70;99.90;;;;;;4975294;28;20034;-77
2021/08/05 08:56:48;;;;;;;2.15;1.95;;;22.10;99.90;;;;;;4974646;28;20023;-76
2021/08/05 08:59:17;;;;;;;2.00;1.80;;;21.60;99.90;;;;;;4976602;28;20481;-78
2021/08/05 09:01:43;;;;;;;1.83;1.70;;;21.00;99.90;;;;;;4980543;28;20078;-76
2021/08/05 09:04:09;;;;;;;3.08;2.05;;;21.50;99.90;;;;;;4980759;28;20098;-75
2021/08/05 09:06:36;;;;;;;2.47;1.88;;;21.40;99.90;;;;;;4960225;28;20109;-74
2021/08/05 09:09:04;;;;;;;2.03;1.67;;;21.30;99.90;;;;;;4958825;28;20073;-74
2021/08/05 09:11:30;;;;;;;2.20;1.98;;;21.00;99.90;;;;;;4977934;28;20023;-77
2021/08/05 09:13:56;;;;;;;2.67;2.17;;;20.60;99.90;;;;;;4997749;28;20034;-77
2021/08/05 09:16:29;;;;;;;2.60;1.85;;;21.10;99.90;;;;;;4970382;28;20132;-74
2021/08/05 09:19:06;;;;;;;3.83;2.13;;;21.30;99.90;;;;;;4976539;28;20022;-77
2021/08/05 09:21:32;;;;;;;2.25;2.00;;;21.70;99.90;;;;;;4976478;28;20468;-76
2021/08/05 09:23:59;;;;;;;1.95;1.60;;;22.00;99.90;;;;;;4961520;28;20082;-79
2021/08/05 09:26:50;;;;;;;3.35;1.60;;;21.80;99.90;;;;;;4980775;28;20110;-81
2021/08/05 09:29:18;;;;;;;3.17;1.65;;;22.10;99.90;;;;;;4978803;28;20051;-78
2021/08/05 09:31:54;;;;;;;3.65;1.60;;;22.60;99.90;;;;;;4984567;28;20114;-78
2021/08/05 09:34:23;;;;;;;3.17;1.35;;;22.80;99.90;;;;;;4963920;28;20031;-79
2021/08/05 09:36:59;;;;;;;1.92;1.40;;;22.70;99.90;;;;;;4984732;28;20031;-79
2021/08/05 09:39:26;;;;;;;2.83;1.23;;;22.20;99.90;;;;;;4977112;28;20101;-78
2021/08/05 09:42:00;;;;;;;3.17;1.38;;;21.60;99.90;;;;;;4976192;28;20027;-78
2021/08/05 09:44:27;;;;;;;2.53;1.73;;;21.60;99.90;;;;;;4974986;28;20037;-78
2021/08/05 09:47:07;;;;;;;2.47;1.60;;;21.80;99.90;;;;;;4976699;28;20497;-77
2021/08/05 09:49:34;;;;;;;1.77;1.63;;;22.40;99.90;;;;;;4961848;28;20033;-80
2021/08/05 09:52:01;;;;;;;3.22;1.60;;;22.80;99.90;;;;;;4988920;28;20027;-77
2021/08/05 09:54:40;;;;;;;1.67;1.58;;;23.30;99.90;;;;;;4960668;28;20038;-77
2021/08/05 09:57:07;;;;;;;1.77;1.55;;;22.60;99.90;;;;;;4976855;28;20191;-79
2021/08/05 09:59:34;;;;;;;2.10;1.73;;;22.50;99.90;;;;;;4963771;28;20022;-78
2021/08/05 10:02:01;;;;;;;1.40;1.30;;;22.50;99.90;;;;;;4982465;28;20027;-78
2021/08/05 10:04:34;;;;;;;2.83;1.30;;;23.00;99.90;;;;;;4976324;28;20019;-77
2021/08/05 10:07:08;;;;;;;1.48;1.38;;;23.20;99.90;;;;;;4975694;28;20035;-78
2021/08/05 10:09:35;;;;;;;1.23;1.08;;;24.80;99.90;;;;;;4976479;28;20019;-78
2021/08/05 10:12:23;;;;;;;1.40;1.30;;;25.60;99.90;;;;;;4977713;28;20540;-78
2021/08/05 10:14:50;;;;;;;1.10;1.10;;;25.30;99.90;;;;;;4973660;28;20035;-76
2021/08/05 10:17:18;;;;;;;1.50;1.15;;;25.90;99.90;;;;;;4959573;28;20038;-77
2021/08/05 10:19:46;;;;;;;2.92;0.95;;;25.70;99.90;;;;;;4974372;28;20027;-77
2021/08/05 10:22:15;;;;;;;0.85;0.85;;;26.40;99.90;;;;;;4974343;28;20019;-74
2021/08/05 10:24:51;;;;;;;1.52;1.00;;;26.40;99.90;;;;;;4973160;28;20019;-75
2021/08/05 10:27:19;;;;;;;1.20;0.98;;;24.80;99.90;;;;;;4974041;28;20023;-75
2021/08/05 10:29:48;;;;;;;1.02;0.95;;;25.00;99.90;;;;;;4956601;28;20042;-76
2021/08/05 10:32:15;;;;;;;1.55;1.33;;;25.30;99.90;;;;;;4974397;28;20031;-74
2021/08/05 10:34:41;;;;;;;0.80;0.80;;;25.10;99.90;;;;;;4973003;28;20031;-75
2021/08/05 10:37:11;;;;;;;1.63;1.00;;;24.20;99.90;;;;;;4974053;28;20069;-73
2021/08/05 10:39:37;;;;;;;1.38;1.02;;;24.10;99.90;;;;;;4974183;28;20042;-73
2021/08/05 10:42:15;;;;;;;1.08;1.05;;;24.00;99.90;;;;;;4973984;28;20025;-74
2021/08/05 10:44:42;;;;;;;1.13;1.02;;;24.50;99.90;;;;;;4972512;28;20038;-73
2021/08/05 10:47:13;;;;;;;1.30;1.20;;;24.50;99.90;;;;;;4974616;28;20034;-77
2021/08/05 10:49:40;;;;;;;1.27;1.17;;;25.10;99.90;;;;;;4974936;28;20041;-76
2021/08/05 10:52:06;;;;;;;1.40;1.30;;;25.90;99.90;;;;;;4975130;28;20031;-79
2021/08/05 10:54:46;;;;;;;1.30;1.20;;;24.70;99.90;;;;;;4974082;28;20027;-77
2021/08/05 10:57:21;;;;;;;1.77;1.10;;;24.60;99.90;;;;;;4970630;28;20031;-76
2021/08/05 11:00:10;;;;;;;1.00;1.00;;;24.30;99.90;;;;;;4982959;28;20027;-77
2021/08/05 11:02:45;;;;;;;2.70;1.20;;;24.40;99.90;;;;;;4977199;28;20061;-80
2021/08/05 11:05:21;;;;;;;1.17;1.05;;;24.50;99.90;;;;;;4964795;28;20034;-80
2021/08/05 11:07:48;;;;;;;1.35;1.10;;;25.30;99.90;;;;;;4963409;28;20094;-73
2021/08/05 11:10:16;;;;;;;0.80;0.80;;;26.50;99.90;;;;;;4973441;28;20043;-71
2021/08/05 11:12:48;;;;;;;0.80;0.80;;;26.20;99.90;;;;;;4973308;28;20030;-73
2021/08/05 11:15:24;;;;;;;0.60;0.60;;;26.20;99.90;;;;;;4974260;28;20022;-81
2021/08/05 11:18:17;;;;;;;0.75;0.70;;;26.00;99.50;;;;;;4974488;28;20110;-78
2021/08/05 11:20:50;;;;;;;2.35;0.75;;;25.90;98.60;;;;;;4978658;28;20085;-80
2021/08/05 11:25:56;;;;;;;1.00;0.85;;;26.80;99.90;;;;;;4977172;28;20499;-80
2021/08/05 11:28:28;;;;;;;0.93;0.60;;;26.30;98.80;;;;;;4977098;28;20038;-80
2021/08/05 11:30:58;;;;;;;0.82;0.82;;;25.60;99.20;;;;;;4976920;28;20108;-79
2021/08/05 11:33:45;;;;;;;1.20;1.02;;;25.20;99.90;;;;;;4973932;28;20046;-79
2021/08/05 11:36:33;;;;;;;1.40;1.00;;;24.80;99.90;;;;;;4956267;28;20485;-77
2021/08/05 11:39:10;;;;;;;1.20;0.80;;;26.40;99.90;;;;;;4971699;28;20053;-77
2021/08/05 11:41:41;;;;;;;1.00;0.88;;;29.90;95.90;;;;;;4973339;28;20438;-78
2021/08/05 11:44:38;;;;;;;2.28;0.63;;;29.70;93.60;;;;;;4955118;28;20031;-78
2021/08/05 11:47:19;;;;;;;0.80;0.50;;;29.90;93.20;;;;;;4953303;28;20389;-79
2021/08/05 11:49:57;;;;;;;1.23;0.82;;;30.10;93.30;;;;;;4976855;28;20022;-79
2021/08/05 11:52:36;;;;;;;1.10;1.00;;;29.00;92.00;;;;;;4950675;28;20035;-81
2021/08/05 11:55:10;;;;;;;0.60;0.60;;;28.30;93.50;;;;;;4985967;28;20026;-81
2021/08/05 11:57:37;;;;;;;2.42;0.60;;;27.30;92.90;;;;;;4986002;28;20159;-79
2021/08/05 12:00:25;;;;;;;1.67;0.52;;;26.10;95.20;;;;;;4990037;28;20026;-79
2021/08/05 12:02:52;;;;;;;1.55;0.75;;;25.60;97.00;;;;;;4983609;28;20338;-81
2021/08/05 12:05:20;;;;;;;0.68;0.68;;;25.30;96.10;;;;;;4963223;28;20081;-79
2021/08/05 12:07:48;;;;;;;0.50;0.50;;;26.10;98.00;;;;;;4987633;28;20023;-83
2021/08/05 12:10:26;;;;;;;0.50;0.50;;;26.30;95.30;;;;;;4982913;28;20026;-83
2021/08/05 12:12:56;;;;;;;0.63;0.63;;;25.60;95.60;;;;;;4957100;28;20027;-80
2021/08/05 12:15:29;;;;;;;1.00;0.77;;;26.10;98.30;;;;;;4980817;28;20033;-79
2021/08/05 12:17:58;;;;;;;1.13;0.47;;;26.70;96.80;;;;;;4967108;28;20023;-79
2021/08/05 12:20:34;;;;;;;1.27;0.60;;;26.50;95.80;;;;;;4982471;28;20022;-78
2021/08/05 12:23:25;;;;;;;0.80;0.50;;;25.60;96.40;;;;;;4989493;28;20055;-81
2021/08/05 12:28:25;;;;;;;0.88;0.60;;;25.10;97.20;;;;;;4982447;28;20038;-77
2021/08/05 12:30:54;;;;;;;1.98;0.63;;;25.50;96.60;;;;;;4966994;28;20027;-76
2021/08/05 12:33:23;;;;;;;0.88;0.63;;;24.70;99.10;;;;;;4985142;28;20045;-78
2021/08/05 12:36:06;;;;;;;2.47;0.63;;;24.60;98.50;;;;;;4980584;28;20026;-77
2021/08/05 12:38:47;;;;;;;0.55;0.55;;;24.90;99.40;;;;;;4977553;28;20059;-73
2021/08/05 12:41:16;;;;;;;0.52;0.52;;;24.90;98.00;;;;;;4979438;28;20034;-72
2021/08/05 12:43:44;;;;;;;1.52;0.60;;;25.40;97.70;;;;;;4978897;28;20093;-74
2021/08/05 12:46:10;;;;;;;0.60;0.60;;;24.20;97.70;;;;;;4979567;28;20593;-74
2021/08/05 12:48:38;;;;;;;1.73;0.90;;;23.60;99.40;;;;;;4986240;28;20027;-80
2021/08/05 12:51:04;;;;;;;0.50;0.50;;;23.90;99.90;;;;;;4986183;28;20077;-81
2021/08/05 12:53:34;;;;;;;0.47;0.47;;;25.10;99.50;;;;;;4965072;28;20027;-79
2021/08/05 12:56:03;;;;;;;0.57;0.57;;;25.10;97.30;;;;;;4961970;28;20137;-77